Etusivu
METAR-TAF:

METAR-TAF

Lentoasemat :

Bujumburan kansainvälinen lentoasema

Bujumbura, Burundi

Leveyspiiri: 03-19S, Pituuspiiri: 029-19E, korkeus merenpinnasta: 782 m

METAR: puuttuu

Aika: 07:09 (05:09 UTC)

Sääennuste

Tämä raportti tehtiin 6 tuntia ja 9 minuuttia sitten, kello 23.00 UTC
Ennuste voimassa 17. päivästä klo 00 UTC - 18. päivään klo 06 UTC
Tuuli kn pohjoisesta
Näkyvyys 10 km tai enemmän
ei pilviä alle 1500 m:ssä eikä cumulonimbus-pilviä
usvaa

TAF: HBBA 162300Z 1700/1806 03004KT 9999 FEW030 BECMG1703/1705 VRB03KT 5000 HZ NSC BECMG1708/1710 18012G25KLT 8000 EW035 BECMG1717/1719 00000KT 00000KT CAVOK

Säähavainnot ja -ennusteet yli 4000 lentoasemalta (METAR- ja TAF-raportit).

Käytössä olevat sääasemat on merkitty karttaan keltaisilla ja punaisilla pisteillä.

Aseta hiiri pisteen päälle nähdäksesi sääaseman nimen.

Klikkaa sitten nähdäksesi säähavainnot ja -ennusteet.

Kartan vaihtaminen: klikkaa mustalla rastilla varustettuja vihreitä pisteitä, niin voit zoomata sisään; viivalla varustettua vihreää pistettä, niin voit zoomata ulos tai vihreitä nuolia, niin pääset viereisille kartoille.


METAR-TAF: